createdAt,value
2018-06-15T00:00:39.074Z,95719.67
2018-06-15T00:03:08.122Z,95727.73
2018-06-15T00:05:37.522Z,95728.02
2018-06-15T00:08:06.885Z,95732.30
2018-06-15T00:10:36.300Z,95729.89
2018-06-15T00:13:05.683Z,95726.64
2018-06-15T00:15:35.103Z,95726.64
2018-06-15T00:18:04.486Z,95726.12
2018-06-15T00:20:33.877Z,95732.80
2018-06-15T00:23:03.221Z,95723.68
2018-06-15T00:25:32.578Z,95720.46
2018-06-15T00:28:01.987Z,95721.27
2018-06-15T00:30:31.680Z,95718.59
2018-06-15T00:33:01.076Z,95720.71
2018-06-15T00:35:30.457Z,95722.59
2018-06-15T00:37:59.815Z,95720.46
2018-06-15T00:40:29.341Z,95718.05
2018-06-15T00:42:58.709Z,95719.11
2018-06-15T00:45:28.092Z,95713.21
2018-06-15T00:47:57.391Z,95710.77
2018-06-15T00:50:26.764Z,95704.34
2018-06-15T00:52:56.186Z,95704.05
2018-06-15T00:55:25.591Z,95711.05
2018-06-15T00:57:55.009Z,95708.65
2018-06-15T01:00:24.405Z,95708.90
2018-06-15T01:02:53.950Z,95711.30
2018-06-15T01:05:23.323Z,95714.27
2018-06-15T01:07:52.702Z,95709.99
2018-06-15T01:10:22.233Z,95713.74
2018-06-15T01:12:51.748Z,95708.12
2018-06-15T01:15:21.125Z,95707.84
2018-06-15T01:17:50.499Z,95712.40
2018-06-15T01:20:19.887Z,95705.93
2018-06-15T01:22:49.241Z,95705.39
2018-06-15T01:25:18.624Z,95709.67
2018-06-15T01:27:48.001Z,95704.02
2018-06-15T01:30:17.398Z,95709.67
2018-06-15T01:32:46.738Z,95704.02
2018-06-15T01:35:16.073Z,95701.33
2018-06-15T01:37:45.432Z,95701.33
2018-06-15T01:40:14.798Z,95701.58
2018-06-15T01:42:44.318Z,95699.98
2018-06-15T01:45:13.703Z,95704.02
2018-06-15T01:47:43.012Z,95705.64
2018-06-15T01:50:12.427Z,95709.39
2018-06-15T01:52:41.928Z,95701.61
2018-06-15T01:55:11.279Z,95705.64
2018-06-15T01:57:40.764Z,95697.30
2018-06-15T02:00:10.294Z,95692.48
2018-06-15T02:02:39.613Z,95696.52
2018-06-15T02:05:09.025Z,95702.14
2018-06-15T02:07:38.397Z,95697.05
2018-06-15T02:10:07.789Z,95694.08
2018-06-15T02:12:37.773Z,95706.17
2018-06-15T02:15:07.186Z,95699.20
2018-06-15T02:17:36.471Z,95702.67
2018-06-15T02:20:05.867Z,95700.55
2018-06-15T02:22:35.314Z,95697.05
2018-06-15T02:25:04.989Z,95697.05
2018-06-15T02:27:34.502Z,95695.70
2018-06-15T02:30:03.988Z,95693.83
2018-06-15T02:32:33.593Z,95692.48
2018-06-15T02:35:02.919Z,95698.39
2018-06-15T02:37:32.279Z,95695.42
2018-06-15T02:40:01.746Z,95692.20
2018-06-15T02:42:31.117Z,95695.70
2018-06-15T02:45:00.217Z,95698.39
2018-06-15T02:47:29.531Z,95703.48
2018-06-15T02:49:58.925Z,95704.54
2018-06-15T02:52:28.229Z,95700.47
2018-06-15T02:54:57.611Z,95694.56
2018-06-15T02:57:27.839Z,95696.72
2018-06-15T02:59:57.224Z,95693.55
2018-06-15T03:02:26.575Z,95695.42
2018-06-15T03:04:56.022Z,95695.95
2018-06-15T03:07:25.424Z,95698.64
2018-06-15T03:09:54.909Z,95694.61
2018-06-15T03:12:24.266Z,95700.27
2018-06-15T03:14:53.657Z,95699.17
2018-06-15T03:17:23.093Z,95699.73
2018-06-15T03:19:52.558Z,95690.82
2018-06-15T03:22:21.950Z,95696.76
2018-06-15T03:24:51.293Z,95695.95
2018-06-15T03:27:20.638Z,95697.54
2018-06-15T03:29:50.101Z,95695.42
2018-06-15T03:32:19.529Z,95699.20
2018-06-15T03:34:48.926Z,95699.73
2018-06-15T03:37:18.342Z,95698.68
2018-06-15T03:39:47.712Z,95698.14
2018-06-15T03:42:17.308Z,95703.23
2018-06-15T03:44:46.590Z,95699.73
2018-06-15T03:47:15.924Z,95698.92
2018-06-15T03:49:45.271Z,95699.20
2018-06-15T03:52:14.698Z,95705.92
2018-06-15T03:54:44.267Z,95702.42
2018-06-15T03:57:13.677Z,95703.24
2018-06-15T03:59:43.060Z,95701.89
2018-06-15T04:02:12.425Z,95698.39
2018-06-15T04:04:41.807Z,95699.45
2018-06-15T04:07:10.889Z,95692.45
2018-06-15T04:09:40.262Z,95694.60
2018-06-15T04:12:09.571Z,95701.85
2018-06-15T04:14:38.890Z,95692.98
2018-06-15T04:17:08.494Z,95700.51
2018-06-15T04:19:37.970Z,95699.98
2018-06-15T04:22:07.310Z,95694.84
2018-06-15T04:24:36.761Z,95689.75
2018-06-15T04:27:06.343Z,95695.95
2018-06-15T04:29:35.963Z,95698.07
2018-06-15T04:32:05.345Z,95697.24
2018-06-15T04:34:34.662Z,95702.58
2018-06-15T04:37:04.035Z,95697.47
2018-06-15T04:39:33.413Z,95694.75
2018-06-15T04:42:02.862Z,95699.06
2018-06-15T04:44:32.200Z,95698.53
2018-06-15T04:47:01.569Z,95689.12
2018-06-15T04:49:30.898Z,95689.66
2018-06-15T04:52:00.522Z,95682.94
2018-06-15T04:54:29.891Z,95692.09
2018-06-15T04:56:59.323Z,95686.19
2018-06-15T04:59:28.996Z,95691.29
2018-06-15T05:01:58.362Z,95688.36
2018-06-15T05:04:28.126Z,95691.33
2018-06-15T05:06:57.901Z,95696.72
2018-06-15T05:09:27.431Z,95696.72
2018-06-15T05:11:56.887Z,95695.90
2018-06-15T05:14:26.447Z,95696.95
2018-06-15T05:16:55.802Z,95690.23
2018-06-15T05:19:25.218Z,95693.74
2018-06-15T05:21:54.685Z,95695.61
2018-06-15T05:24:24.223Z,95696.13
2018-06-15T05:26:54.187Z,95698.48
2018-06-15T05:29:23.740Z,95701.69
2018-06-15T05:31:53.399Z,95697.14
2018-06-15T05:34:22.810Z,95696.56
2018-06-15T05:36:53.288Z,95699.47
2018-06-15T05:39:22.772Z,95700.80
2018-06-15T05:41:52.897Z,95701.81
2018-06-15T05:44:22.498Z,95692.64
2018-06-15T05:46:51.965Z,95698.25
2018-06-15T05:49:21.586Z,95695.72
2018-06-15T05:51:51.014Z,95697.04
2018-06-15T05:54:20.429Z,95697.56
2018-06-15T05:56:50.305Z,95696.72
2018-06-15T05:59:19.737Z,95700.68
2018-06-15T06:01:49.168Z,95696.63
2018-06-15T06:04:18.618Z,95700.94
2018-06-15T06:06:47.982Z,95706.84
2018-06-15T06:09:17.539Z,95712.39
2018-06-15T06:11:46.906Z,95706.11
2018-06-15T06:14:16.289Z,95707.20
2018-06-15T06:16:45.679Z,95706.92
2018-06-15T06:19:15.075Z,95713.67
2018-06-15T06:21:44.462Z,95708.70
2018-06-15T06:24:13.910Z,95706.56
2018-06-15T06:26:43.438Z,95705.75
2018-06-15T06:29:12.814Z,95710.00
2018-06-15T06:31:42.198Z,95710.98
2018-06-15T06:34:11.623Z,95713.34
2018-06-15T06:36:41.057Z,95709.91
2018-06-15T06:39:12.218Z,95718.75
2018-06-15T06:41:41.698Z,95718.10
2018-06-15T06:44:11.699Z,95721.05
2018-06-15T06:46:41.099Z,95721.30
2018-06-15T06:49:10.465Z,95716.69
2018-06-15T06:51:39.806Z,95719.59
2018-06-15T06:54:09.199Z,95718.80
2018-06-15T06:56:38.568Z,95716.30
2018-06-15T06:59:08.016Z,95721.92
2018-06-15T07:01:37.472Z,95721.48
2018-06-15T07:04:06.850Z,95717.63
2018-06-15T07:06:36.188Z,95722.67
2018-06-15T07:09:07.807Z,95720.78
2018-06-15T07:11:37.757Z,95730.13
2018-06-15T07:14:07.146Z,95724.73
2018-06-15T07:16:36.651Z,95725.34
2018-06-15T07:19:06.078Z,95723.38
2018-06-15T07:21:35.522Z,95724.19
2018-06-15T07:24:05.136Z,95720.11
2018-06-15T07:26:34.462Z,95724.21
2018-06-15T07:29:03.845Z,95718.63
2018-06-15T07:31:33.241Z,95720.66
2018-06-15T07:34:02.613Z,95716.06
2018-06-15T07:36:32.059Z,95713.55
2018-06-15T07:39:01.436Z,95722.62
2018-06-15T07:41:30.851Z,95718.66
2018-06-15T07:44:00.213Z,95720.67
2018-06-15T07:46:29.572Z,95720.67
2018-06-15T07:48:59.192Z,95727.55
2018-06-15T07:51:28.542Z,95730.27
2018-06-15T07:53:57.953Z,95720.83
2018-06-15T07:56:27.437Z,95724.48
2018-06-15T07:58:56.827Z,95730.89
2018-06-15T08:01:26.184Z,95726.78
2018-06-15T08:03:57.717Z,95722.83
2018-06-15T08:06:27.101Z,95720.42
2018-06-15T08:08:56.509Z,95720.06
2018-06-15T08:11:25.922Z,95725.91
2018-06-15T08:13:55.357Z,95718.41
2018-06-15T08:16:24.954Z,95725.40
2018-06-15T08:18:54.491Z,95720.45
2018-06-15T08:21:24.024Z,95716.91
2018-06-15T08:23:53.454Z,95710.33
2018-06-15T08:26:22.948Z,95714.15
2018-06-15T08:28:53.504Z,95717.70
2018-06-15T08:31:23.093Z,95712.43
2018-06-15T08:33:52.561Z,95713.64
2018-06-15T08:36:22.804Z,95716.67
2018-06-15T08:38:52.339Z,95720.33
2018-06-15T08:41:21.932Z,95715.13
2018-06-15T08:43:51.426Z,95710.43
2018-06-15T08:46:20.967Z,95713.23
2018-06-15T08:48:50.809Z,95712.75
2018-06-15T08:51:20.246Z,95709.78
2018-06-15T08:53:49.666Z,95707.47
2018-06-15T08:56:19.039Z,95701.84
2018-06-15T08:58:48.450Z,95695.36
2018-06-15T09:01:17.922Z,95703.13
2018-06-15T09:03:47.368Z,95703.10
2018-06-15T09:06:16.704Z,95692.05
2018-06-15T09:08:46.141Z,95696.88
2018-06-15T09:11:15.605Z,95698.55
2018-06-15T09:13:45.015Z,95703.62
2018-06-15T09:16:14.350Z,95702.27
2018-06-15T09:18:43.703Z,95696.63
2018-06-15T09:21:13.049Z,95695.27
2018-06-15T09:23:42.394Z,95693.06
2018-06-15T09:26:11.711Z,95697.80
2018-06-15T09:28:41.075Z,95700.94
2018-06-15T09:31:10.422Z,95700.22
2018-06-15T09:33:39.715Z,95704.40
2018-06-15T09:36:09.102Z,95705.39
2018-06-15T09:38:38.545Z,95704.92
2018-06-15T09:41:07.906Z,95702.51
2018-06-15T09:43:37.227Z,95698.28
2018-06-15T09:46:06.658Z,95697.19
2018-06-15T09:48:36.001Z,95698.30
2018-06-15T09:51:05.391Z,95700.86
2018-06-15T09:53:37.081Z,95698.75
2018-06-15T09:56:06.848Z,95696.36
2018-06-15T09:58:36.161Z,95702.18
2018-06-15T10:01:07.708Z,95699.64
2018-06-15T10:03:37.715Z,95696.98
2018-06-15T10:06:07.139Z,95700.48
2018-06-15T10:08:37.070Z,95697.48
2018-06-15T10:11:06.749Z,95698.11
2018-06-15T10:13:36.084Z,95705.52
2018-06-15T10:16:05.457Z,95699.40
2018-06-15T10:18:34.795Z,95703.64
2018-06-15T10:21:03.836Z,95703.71
2018-06-15T10:23:33.243Z,95708.59
2018-06-15T10:26:02.622Z,95700.77
2018-06-15T10:28:31.934Z,95703.72
2018-06-15T10:31:01.246Z,95700.84
2018-06-15T10:33:30.648Z,95703.56
2018-06-15T10:36:00.062Z,95700.68
2018-06-15T10:38:29.365Z,95704.92
2018-06-15T10:40:59.057Z,95699.81
2018-06-15T10:43:28.527Z,95704.45
2018-06-15T10:45:57.908Z,95703.23
2018-06-15T10:48:27.235Z,95699.48
2018-06-15T10:50:56.598Z,95708.75
2018-06-15T10:53:26.089Z,95703.42
2018-06-15T10:55:55.562Z,95699.96
2018-06-15T10:58:25.013Z,95692.44
2018-06-15T11:00:54.789Z,95694.78
2018-06-15T11:03:24.247Z,95690.59
2018-06-15T11:05:54.173Z,95695.48
2018-06-15T11:08:23.671Z,95689.81
2018-06-15T11:10:53.430Z,95693.55
2018-06-15T11:13:22.943Z,95693.17
2018-06-15T11:15:52.416Z,95684.52
2018-06-15T11:18:21.830Z,95687.80
2018-06-15T11:20:51.336Z,95677.78
2018-06-15T11:23:22.997Z,95684.36
2018-06-15T11:25:53.266Z,95683.08
2018-06-15T11:28:23.088Z,95693.67
2018-06-15T11:30:52.574Z,95692.43
2018-06-15T11:33:21.987Z,95695.63
2018-06-15T11:35:51.410Z,95694.52
2018-06-15T11:38:20.997Z,95689.88
2018-06-15T11:40:50.403Z,95691.32
2018-06-15T11:43:19.808Z,95684.84
2018-06-15T11:45:49.178Z,95687.23
2018-06-15T11:48:18.613Z,95690.98
2018-06-15T11:50:47.967Z,95686.20
2018-06-15T11:53:17.307Z,95693.44
2018-06-15T11:55:46.673Z,95693.94
2018-06-15T11:58:16.087Z,95688.41
2018-06-15T12:00:45.425Z,95692.84
2018-06-15T12:03:14.753Z,95689.98
2018-06-15T12:05:44.095Z,95684.38
2018-06-15T12:08:13.800Z,95690.55
2018-06-15T12:10:43.122Z,95685.78
2018-06-15T12:13:12.477Z,95685.31
2018-06-15T12:15:42.920Z,95684.76
2018-06-15T12:18:12.263Z,95682.55
2018-06-15T12:20:41.633Z,95679.91
2018-06-15T12:23:10.766Z,95681.27
2018-06-15T12:25:40.143Z,95681.78
2018-06-15T12:28:09.527Z,95679.31
2018-06-15T12:30:38.928Z,95676.50
2018-06-15T12:33:08.352Z,95675.19
2018-06-15T12:35:37.789Z,95672.84
2018-06-15T12:38:07.155Z,95672.37
2018-06-15T12:40:36.546Z,95685.77
2018-06-15T12:43:06.041Z,95684.09
2018-06-15T12:45:35.637Z,95677.78
2018-06-15T12:48:05.069Z,95676.16
2018-06-15T12:50:34.386Z,95680.93
2018-06-15T12:53:03.785Z,95683.06
2018-06-15T12:55:33.097Z,95669.39
2018-06-15T12:58:02.362Z,95677.01
2018-06-15T13:00:31.732Z,95676.38
2018-06-15T13:03:01.036Z,95676.11
2018-06-15T13:05:30.398Z,95665.25
2018-06-15T13:07:59.735Z,95669.90
2018-06-15T13:10:29.066Z,95663.17
2018-06-15T13:12:58.370Z,95662.12
2018-06-15T13:15:27.820Z,95657.34
2018-06-15T13:17:57.248Z,95660.31
2018-06-15T13:20:26.529Z,95662.66
2018-06-15T13:22:55.889Z,95666.23
2018-06-15T13:25:25.310Z,95670.10
2018-06-15T13:27:54.746Z,95663.69
2018-06-15T13:30:24.238Z,95664.45
2018-06-15T13:32:53.671Z,95657.72
2018-06-15T13:35:23.241Z,95652.33
2018-06-15T13:37:52.860Z,95650.29
2018-06-15T13:40:22.380Z,95649.83
2018-06-15T13:42:51.783Z,95650.50
2018-06-15T13:45:21.195Z,95648.46
2018-06-15T13:47:50.641Z,95658.23
2018-06-15T13:50:20.025Z,95646.97
2018-06-15T13:52:49.386Z,95644.92
2018-06-15T13:55:18.824Z,95644.09
2018-06-15T13:57:48.222Z,95647.66
2018-06-15T14:00:18.007Z,95649.17
2018-06-15T14:02:47.309Z,95642.16
2018-06-15T14:05:16.748Z,95645.89
2018-06-15T14:07:46.207Z,95643.83
2018-06-15T14:10:15.562Z,95650.23
2018-06-15T14:12:44.945Z,95644.16
2018-06-15T14:15:14.326Z,95650.23
2018-06-15T14:17:43.675Z,95648.10
2018-06-15T14:20:13.345Z,95636.64
2018-06-15T14:22:42.692Z,95633.24
2018-06-15T14:25:12.081Z,95626.45
2018-06-15T14:27:41.485Z,95636.41
2018-06-15T14:30:10.797Z,95627.85
2018-06-15T14:32:40.149Z,95637.17
2018-06-15T14:35:09.582Z,95642.06
2018-06-15T14:37:39.119Z,95632.10
2018-06-15T14:40:08.610Z,95636.83
2018-06-15T14:42:38.061Z,95630.16
2018-06-15T14:45:07.634Z,95623.50
2018-06-15T14:47:36.999Z,95620.44
2018-06-15T14:50:06.410Z,95626.05
2018-06-15T14:52:35.813Z,95632.74
2018-06-15T14:55:05.321Z,95631.52
2018-06-15T14:57:34.713Z,95626.38
2018-06-15T15:00:04.087Z,95621.49
2018-06-15T15:02:34.372Z,95628.66
2018-06-15T15:05:03.790Z,95615.97
2018-06-15T15:07:33.173Z,95617.86
2018-06-15T15:10:02.618Z,95609.27
2018-06-15T15:12:31.952Z,95611.13
2018-06-15T15:15:01.398Z,95616.17
2018-06-15T15:17:30.812Z,95609.86
2018-06-15T15:20:00.155Z,95603.87
2018-06-15T15:22:29.541Z,95613.88
2018-06-15T15:24:59.066Z,95606.93
2018-06-15T15:27:28.441Z,95604.52
2018-06-15T15:29:57.851Z,95601.91
2018-06-15T15:32:27.129Z,95603.58
2018-06-15T15:34:56.533Z,95604.64
2018-06-15T15:37:25.935Z,95607.18
2018-06-15T15:39:55.601Z,95604.13
2018-06-15T15:42:25.077Z,95604.20
2018-06-15T15:44:54.777Z,95595.72
2018-06-15T15:47:24.308Z,95600.82
2018-06-15T15:49:53.678Z,95601.94
2018-06-15T15:52:23.017Z,95600.59
2018-06-15T15:54:52.460Z,95596.91
2018-06-15T15:57:21.973Z,95595.06
2018-06-15T15:59:51.421Z,95598.46
2018-06-15T16:02:20.764Z,95600.88
2018-06-15T16:04:50.118Z,95598.16
2018-06-15T16:07:19.639Z,95593.68
2018-06-15T16:09:49.296Z,95598.38
2018-06-15T16:12:25.616Z,95600.77
2018-06-15T16:14:59.872Z,95596.70
2018-06-15T16:17:30.588Z,95602.13
2018-06-15T16:20:01.366Z,95599.41
2018-06-15T16:22:30.763Z,95602.01
2018-06-15T16:25:00.178Z,95599.84
2018-06-15T16:27:29.522Z,95602.17
2018-06-15T16:29:59.030Z,95604.95
2018-06-15T16:32:28.518Z,95607.19
2018-06-15T16:34:58.450Z,95603.34
2018-06-15T16:37:27.863Z,95600.44
2018-06-15T16:39:57.557Z,95592.12
2018-06-15T16:42:27.036Z,95594.78
2018-06-15T16:44:56.523Z,95599.33
2018-06-15T16:47:26.018Z,95601.79
2018-06-15T16:49:55.619Z,95609.84
2018-06-15T16:52:25.018Z,95599.59
2018-06-15T16:54:54.388Z,95598.17
2018-06-15T16:57:24.234Z,95603.67
2018-06-15T16:59:53.787Z,95599.17
2018-06-15T17:02:23.216Z,95601.41
2018-06-15T17:04:52.582Z,95602.59
2018-06-15T17:07:22.231Z,95598.98
2018-06-15T17:09:51.706Z,95600.76
2018-06-15T17:12:21.513Z,95609.32
2018-06-15T17:14:51.199Z,95609.19
2018-06-15T17:17:20.658Z,95613.07
2018-06-15T17:19:50.022Z,95607.64
2018-06-15T17:22:19.501Z,95610.03
2018-06-15T17:24:48.998Z,95611.97
2018-06-15T17:27:18.333Z,95611.97
2018-06-15T17:29:47.838Z,95611.42
2018-06-15T17:32:17.683Z,95614.04
2018-06-15T17:34:47.485Z,95613.62
2018-06-15T17:37:16.866Z,95612.36
2018-06-15T17:39:46.275Z,95619.01
2018-06-15T17:42:15.337Z,95611.13
2018-06-15T17:44:44.668Z,95613.80
2018-06-15T17:47:14.013Z,95612.66
2018-06-15T17:49:43.323Z,95611.42
2018-06-15T17:52:12.690Z,95618.59
2018-06-15T17:54:42.059Z,95617.41
2018-06-15T17:57:14.574Z,95621.80
2018-06-15T17:59:44.192Z,95625.00
2018-06-15T18:02:13.489Z,95625.98
2018-06-15T18:04:42.821Z,95621.00
2018-06-15T18:07:12.194Z,95627.87
2018-06-15T18:09:41.841Z,95624.58
2018-06-15T18:12:11.166Z,95626.89
2018-06-15T18:14:40.949Z,95627.83
2018-06-15T18:17:10.307Z,95626.80
2018-06-15T18:19:39.641Z,95623.39
2018-06-15T18:22:09.079Z,95623.21
2018-06-15T18:24:38.455Z,95621.48
2018-06-15T18:27:08.062Z,95622.11
2018-06-15T18:29:37.445Z,95614.14
2018-06-15T18:32:07.219Z,95616.36
2018-06-15T18:34:36.628Z,95620.25
2018-06-15T18:37:06.053Z,95632.23
2018-06-15T18:39:35.829Z,95620.36
2018-06-15T18:42:05.185Z,95620.47
2018-06-15T18:44:34.525Z,95623.86
2018-06-15T18:47:03.957Z,95622.77
2018-06-15T18:49:33.305Z,95627.52
2018-06-15T18:52:03.196Z,95625.67
2018-06-15T18:54:32.621Z,95630.86
2018-06-15T18:57:01.932Z,95633.67
2018-06-15T18:59:31.344Z,95628.07
2018-06-15T19:02:00.702Z,95632.91
2018-06-15T19:04:30.385Z,95635.20
2018-06-15T19:06:59.683Z,95637.16
2018-06-15T19:09:29.100Z,95637.83
2018-06-15T19:11:58.614Z,95637.33
2018-06-15T19:14:28.052Z,95641.45
2018-06-15T19:16:57.410Z,95641.50
2018-06-15T19:19:26.760Z,95641.00
2018-06-15T19:21:56.248Z,95647.59
2018-06-15T19:24:25.673Z,95648.80
2018-06-15T19:26:55.072Z,95655.34
2018-06-15T19:29:24.571Z,95657.55
2018-06-15T19:31:54.177Z,95655.20
2018-06-15T19:34:23.774Z,95656.05
2018-06-15T19:36:53.289Z,95656.91
2018-06-15T19:39:22.719Z,95661.55
2018-06-15T19:41:52.576Z,95662.13
2018-06-15T19:44:21.974Z,95661.36
2018-06-15T19:46:51.446Z,95657.39
2018-06-15T19:49:21.426Z,95659.31
2018-06-15T19:51:51.055Z,95660.44
2018-06-15T19:54:20.496Z,95657.35
2018-06-15T19:56:49.850Z,95663.04
2018-06-15T19:59:19.294Z,95664.50
2018-06-15T20:01:48.855Z,95666.70
2018-06-15T20:04:18.481Z,95668.64
2018-06-15T20:06:47.867Z,95667.67
2018-06-15T20:09:17.258Z,95670.73
2018-06-15T20:11:46.650Z,95674.02
2018-06-15T20:14:16.050Z,95672.97
2018-06-15T20:16:45.513Z,95682.23
2018-06-15T20:19:14.909Z,95683.62
2018-06-15T20:21:44.263Z,95681.77
2018-06-15T20:24:13.583Z,95685.05
2018-06-15T20:26:42.988Z,95688.60
2018-06-15T20:29:12.357Z,95694.31
2018-06-15T20:31:41.704Z,95689.52
2018-06-15T20:34:11.090Z,95690.39
2018-06-15T20:36:40.441Z,95690.67
2018-06-15T20:39:10.611Z,95690.73
2018-06-15T20:41:39.973Z,95691.31
2018-06-15T20:44:09.512Z,95689.45
2018-06-15T20:46:38.836Z,95695.70
2018-06-15T20:49:08.205Z,95689.83
2018-06-15T20:51:37.551Z,95695.53
2018-06-15T20:54:06.903Z,95690.46
2018-06-15T20:56:36.710Z,95691.84
2018-06-15T20:59:06.056Z,95693.23
2018-06-15T21:01:35.541Z,95688.37
2018-06-15T21:04:05.131Z,95695.73
2018-06-15T21:06:34.530Z,95698.16
2018-06-15T21:09:05.189Z,95697.11
2018-06-15T21:11:34.516Z,95695.48
2018-06-15T21:14:04.105Z,95693.39
2018-06-15T21:16:33.782Z,95691.80
2018-06-15T21:19:03.133Z,95690.52
2018-06-15T21:21:32.550Z,95691.30
2018-06-15T21:24:01.914Z,95687.84
2018-06-15T21:26:31.280Z,95696.79
2018-06-15T21:29:00.726Z,95689.80
2018-06-15T21:31:30.102Z,95687.91
2018-06-15T21:33:59.529Z,95692.80
2018-06-15T21:36:29.112Z,95692.83
2018-06-15T21:38:58.475Z,95687.52
2018-06-15T21:41:28.085Z,95684.81
2018-06-15T21:43:57.492Z,95687.01
2018-06-15T21:46:26.853Z,95688.39
2018-06-15T21:48:56.423Z,95688.41
2018-06-15T21:51:25.910Z,95680.88
2018-06-15T21:53:55.364Z,95680.37
2018-06-15T21:56:25.534Z,95688.47
2018-06-15T21:58:54.987Z,95680.64
2018-06-15T22:01:28.770Z,95681.75
2018-06-15T22:03:58.483Z,95685.56
2018-06-15T22:06:27.881Z,95683.19
2018-06-15T22:08:57.251Z,95685.07
2018-06-15T22:11:27.057Z,95683.52
2018-06-15T22:13:56.399Z,95687.29
2018-06-15T22:16:25.570Z,95687.05
2018-06-15T22:18:55.058Z,95683.33
2018-06-15T22:21:24.468Z,95684.70
2018-06-15T22:23:53.890Z,95685.23
2018-06-15T22:26:23.641Z,95686.09
2018-06-15T22:28:53.120Z,95682.35
2018-06-15T22:31:22.530Z,95690.17
2018-06-15T22:33:52.310Z,95689.45
2018-06-15T22:36:21.705Z,95696.75
2018-06-15T22:38:51.018Z,95691.66
2018-06-15T22:41:20.376Z,95689.03
2018-06-15T22:43:49.806Z,95693.11
2018-06-15T22:46:19.112Z,95681.82
2018-06-15T22:48:48.543Z,95686.95
2018-06-15T22:51:17.821Z,95683.49
2018-06-15T22:53:47.221Z,95688.91
2018-06-15T22:56:16.572Z,95689.98
2018-06-15T22:58:45.916Z,95687.91
2018-06-15T23:01:15.422Z,95688.71
2018-06-15T23:03:44.781Z,95682.53
2018-06-15T23:06:14.132Z,95678.50
2018-06-15T23:08:43.459Z,95685.00
2018-06-15T23:11:12.797Z,95682.11
2018-06-15T23:13:42.109Z,95677.50
2018-06-15T23:16:11.417Z,95681.59
2018-06-15T23:18:40.738Z,95679.97
2018-06-15T23:21:10.042Z,95682.15
2018-06-15T23:23:39.365Z,95680.28
2018-06-15T23:26:08.705Z,95679.18
2018-06-15T23:28:38.157Z,95685.66
2018-06-15T23:31:07.561Z,95680.60
2018-06-15T23:33:36.965Z,95681.66
2018-06-15T23:36:06.286Z,95680.60
2018-06-15T23:38:35.589Z,95674.41
2018-06-15T23:41:04.929Z,95680.13
2018-06-15T23:43:34.249Z,95679.29
2018-06-15T23:46:03.576Z,95679.05
2018-06-15T23:48:32.970Z,95673.66
2018-06-15T23:51:02.322Z,95678.23
2018-06-15T23:53:31.642Z,95678.20
2018-06-15T23:56:00.953Z,95672.03
2018-06-15T23:58:30.288Z,95674.80
